sensor_id;sensor_type;location;lat;lon;timestamp;P1;durP1;ratioP1;P2;durP2;ratioP2
665;SDS011;315;48.738;9.126;2024-02-26T00:01:22;2.97;;;2.77;;
665;SDS011;315;48.738;9.126;2024-02-26T00:03:48;3.40;;;3.10;;
665;SDS011;315;48.738;9.126;2024-02-26T00:06:14;2.87;;;2.60;;
665;SDS011;315;48.738;9.126;2024-02-26T00:08:39;3.57;;;2.80;;
665;SDS011;315;48.738;9.126;2024-02-26T00:11:05;3.37;;;3.07;;
665;SDS011;315;48.738;9.126;2024-02-26T00:13:30;3.20;;;3.00;;
665;SDS011;315;48.738;9.126;2024-02-26T00:15:56;3.20;;;2.53;;
665;SDS011;315;48.738;9.126;2024-02-26T00:18:21;4.10;;;3.20;;
665;SDS011;315;48.738;9.126;2024-02-26T00:20:47;3.10;;;2.80;;
665;SDS011;315;48.738;9.126;2024-02-26T00:23:14;3.13;;;2.77;;
665;SDS011;315;48.738;9.126;2024-02-26T00:25:40;3.70;;;3.40;;
665;SDS011;315;48.738;9.126;2024-02-26T00:28:07;3.17;;;2.70;;
665;SDS011;315;48.738;9.126;2024-02-26T00:30:33;3.17;;;2.87;;
665;SDS011;315;48.738;9.126;2024-02-26T00:32:59;3.90;;;2.70;;
665;SDS011;315;48.738;9.126;2024-02-26T00:35:24;3.93;;;2.70;;
665;SDS011;315;48.738;9.126;2024-02-26T00:37:50;3.97;;;3.73;;
665;SDS011;315;48.738;9.126;2024-02-26T00:40:15;2.90;;;2.70;;
665;SDS011;315;48.738;9.126;2024-02-26T00:42:41;3.07;;;2.77;;
665;SDS011;315;48.738;9.126;2024-02-26T00:45:10;3.40;;;3.10;;
665;SDS011;315;48.738;9.126;2024-02-26T00:47:41;4.43;;;3.03;;
665;SDS011;315;48.738;9.126;2024-02-26T00:50:07;3.10;;;2.90;;
665;SDS011;315;48.738;9.126;2024-02-26T00:52:33;3.33;;;2.90;;
665;SDS011;315;48.738;9.126;2024-02-26T00:54:59;3.43;;;3.10;;
665;SDS011;315;48.738;9.126;2024-02-26T00:57:25;3.27;;;2.97;;
665;SDS011;315;48.738;9.126;2024-02-26T00:59:50;3.00;;;2.80;;
665;SDS011;315;48.738;9.126;2024-02-26T01:02:16;4.80;;;3.90;;
665;SDS011;315;48.738;9.126;2024-02-26T01:04:42;4.40;;;3.53;;
665;SDS011;315;48.738;9.126;2024-02-26T01:07:07;7.60;;;2.87;;
665;SDS011;315;48.738;9.126;2024-02-26T01:09:33;3.50;;;3.07;;
665;SDS011;315;48.738;9.126;2024-02-26T01:11:59;2.90;;;2.70;;
665;SDS011;315;48.738;9.126;2024-02-26T01:14:24;3.10;;;2.90;;
665;SDS011;315;48.738;9.126;2024-02-26T01:16:50;3.27;;;2.70;;
665;SDS011;315;48.738;9.126;2024-02-26T01:19:15;5.50;;;2.80;;
665;SDS011;315;48.738;9.126;2024-02-26T01:21:41;2.97;;;2.73;;
665;SDS011;315;48.738;9.126;2024-02-26T01:24:06;2.40;;;2.20;;
665;SDS011;315;48.738;9.126;2024-02-26T01:26:32;2.80;;;2.60;;
665;SDS011;315;48.738;9.126;2024-02-26T01:28:57;2.70;;;2.50;;
665;SDS011;315;48.738;9.126;2024-02-26T01:31:23;4.00;;;3.27;;
665;SDS011;315;48.738;9.126;2024-02-26T01:33:49;3.30;;;3.00;;
665;SDS011;315;48.738;9.126;2024-02-26T01:36:14;2.50;;;2.30;;
665;SDS011;315;48.738;9.126;2024-02-26T01:38:40;4.77;;;2.83;;
665;SDS011;315;48.738;9.126;2024-02-26T01:41:05;2.83;;;2.63;;
665;SDS011;315;48.738;9.126;2024-02-26T01:43:31;3.13;;;2.80;;
665;SDS011;315;48.738;9.126;2024-02-26T01:45:57;3.57;;;3.23;;
665;SDS011;315;48.738;9.126;2024-02-26T01:48:23;3.00;;;2.80;;
665;SDS011;315;48.738;9.126;2024-02-26T01:50:48;8.00;;;3.77;;
665;SDS011;315;48.738;9.126;2024-02-26T01:53:14;3.10;;;2.60;;
665;SDS011;315;48.738;9.126;2024-02-26T01:55:41;3.40;;;2.80;;
665;SDS011;315;48.738;9.126;2024-02-26T01:58:07;4.27;;;3.33;;
665;SDS011;315;48.738;9.126;2024-02-26T02:00:33;4.40;;;2.97;;
665;SDS011;315;48.738;9.126;2024-02-26T02:02:59;3.63;;;3.33;;
665;SDS011;315;48.738;9.126;2024-02-26T02:05:26;3.40;;;3.10;;
665;SDS011;315;48.738;9.126;2024-02-26T02:07:53;2.67;;;2.43;;
665;SDS011;315;48.738;9.126;2024-02-26T02:10:19;2.20;;;2.10;;
665;SDS011;315;48.738;9.126;2024-02-26T02:12:48;3.47;;;2.13;;
665;SDS011;315;48.738;9.126;2024-02-26T02:15:14;2.03;;;1.63;;
665;SDS011;315;48.738;9.126;2024-02-26T02:17:39;2.53;;;2.33;;
665;SDS011;315;48.738;9.126;2024-02-26T02:20:07;2.37;;;2.17;;
665;SDS011;315;48.738;9.126;2024-02-26T02:22:44;2.17;;;2.00;;
665;SDS011;315;48.738;9.126;2024-02-26T02:25:10;2.83;;;2.27;;
665;SDS011;315;48.738;9.126;2024-02-26T02:27:35;2.20;;;1.97;;
665;SDS011;315;48.738;9.126;2024-02-26T02:30:01;2.20;;;1.70;;
665;SDS011;315;48.738;9.126;2024-02-26T02:32:27;2.07;;;1.87;;
665;SDS011;315;48.738;9.126;2024-02-26T02:34:54;3.40;;;2.30;;
665;SDS011;315;48.738;9.126;2024-02-26T02:37:20;2.53;;;2.00;;
665;SDS011;315;48.738;9.126;2024-02-26T02:39:45;2.47;;;2.07;;
665;SDS011;315;48.738;9.126;2024-02-26T02:42:11;2.07;;;1.97;;
665;SDS011;315;48.738;9.126;2024-02-26T02:44:37;2.20;;;2.10;;
665;SDS011;315;48.738;9.126;2024-02-26T02:47:02;2.97;;;2.10;;
665;SDS011;315;48.738;9.126;2024-02-26T02:49:28;1.43;;;1.33;;
665;SDS011;315;48.738;9.126;2024-02-26T02:51:53;1.50;;;1.40;;
665;SDS011;315;48.738;9.126;2024-02-26T02:54:19;1.37;;;1.10;;
665;SDS011;315;48.738;9.126;2024-02-26T02:56:45;1.47;;;1.23;;
665;SDS011;315;48.738;9.126;2024-02-26T02:59:10;1.63;;;1.53;;
665;SDS011;315;48.738;9.126;2024-02-26T03:01:36;1.50;;;1.40;;
665;SDS011;315;48.738;9.126;2024-02-26T03:04:01;1.90;;;1.70;;
665;SDS011;315;48.738;9.126;2024-02-26T03:06:27;1.97;;;1.50;;
665;SDS011;315;48.738;9.126;2024-02-26T03:08:53;2.23;;;1.83;;
665;SDS011;315;48.738;9.126;2024-02-26T03:11:19;2.13;;;1.47;;
665;SDS011;315;48.738;9.126;2024-02-26T03:13:45;1.50;;;1.40;;
665;SDS011;315;48.738;9.126;2024-02-26T03:16:10;1.30;;;1.20;;
665;SDS011;315;48.738;9.126;2024-02-26T03:18:38;1.67;;;1.57;;
665;SDS011;315;48.738;9.126;2024-02-26T03:21:04;1.77;;;1.67;;
665;SDS011;315;48.738;9.126;2024-02-26T03:23:30;1.23;;;1.13;;
665;SDS011;315;48.738;9.126;2024-02-26T03:25:56;1.83;;;1.50;;
665;SDS011;315;48.738;9.126;2024-02-26T03:28:23;2.00;;;1.90;;
665;SDS011;315;48.738;9.126;2024-02-26T03:30:48;1.60;;;1.50;;
665;SDS011;315;48.738;9.126;2024-02-26T03:33:14;2.20;;;1.97;;
665;SDS011;315;48.738;9.126;2024-02-26T03:35:39;3.83;;;1.53;;
665;SDS011;315;48.738;9.126;2024-02-26T03:38:05;1.93;;;1.53;;
665;SDS011;315;48.738;9.126;2024-02-26T03:40:30;1.43;;;1.30;;
665;SDS011;315;48.738;9.126;2024-02-26T03:42:56;1.80;;;1.70;;
665;SDS011;315;48.738;9.126;2024-02-26T03:45:23;1.93;;;1.83;;
665;SDS011;315;48.738;9.126;2024-02-26T03:47:48;2.27;;;1.83;;
665;SDS011;315;48.738;9.126;2024-02-26T03:50:14;1.63;;;1.53;;
665;SDS011;315;48.738;9.126;2024-02-26T03:52:39;1.47;;;1.37;;
665;SDS011;315;48.738;9.126;2024-02-26T03:55:05;1.90;;;1.53;;
665;SDS011;315;48.738;9.126;2024-02-26T03:57:30;1.40;;;1.30;;
665;SDS011;315;48.738;9.126;2024-02-26T03:59:56;2.20;;;1.60;;
665;SDS011;315;48.738;9.126;2024-02-26T04:02:22;1.40;;;1.30;;
665;SDS011;315;48.738;9.126;2024-02-26T04:04:48;1.00;;;1.00;;
665;SDS011;315;48.738;9.126;2024-02-26T04:07:14;0.80;;;0.80;;
665;SDS011;315;48.738;9.126;2024-02-26T04:09:39;2.13;;;1.33;;
665;SDS011;315;48.738;9.126;2024-02-26T04:12:05;1.73;;;1.40;;
665;SDS011;315;48.738;9.126;2024-02-26T04:14:31;1.40;;;1.30;;
665;SDS011;315;48.738;9.126;2024-02-26T04:16:56;4.33;;;1.40;;
665;SDS011;315;48.738;9.126;2024-02-26T04:19:22;1.53;;;1.30;;
665;SDS011;315;48.738;9.126;2024-02-26T04:21:47;1.87;;;1.40;;
665;SDS011;315;48.738;9.126;2024-02-26T04:24:13;1.80;;;1.70;;
665;SDS011;315;48.738;9.126;2024-02-26T04:26:38;1.67;;;1.57;;
665;SDS011;315;48.738;9.126;2024-02-26T04:29:04;1.37;;;1.23;;
665;SDS011;315;48.738;9.126;2024-02-26T04:31:29;2.13;;;1.83;;
665;SDS011;315;48.738;9.126;2024-02-26T04:33:57;2.40;;;1.73;;
665;SDS011;315;48.738;9.126;2024-02-26T04:36:23;1.30;;;1.13;;
665;SDS011;315;48.738;9.126;2024-02-26T04:38:50;1.30;;;1.20;;
665;SDS011;315;48.738;9.126;2024-02-26T04:41:16;2.00;;;1.30;;
665;SDS011;315;48.738;9.126;2024-02-26T04:43:42;1.97;;;1.87;;
665;SDS011;315;48.738;9.126;2024-02-26T04:46:08;2.00;;;1.90;;
665;SDS011;315;48.738;9.126;2024-02-26T04:48:34;2.20;;;1.90;;
665;SDS011;315;48.738;9.126;2024-02-26T04:51:00;4.07;;;2.77;;
665;SDS011;315;48.738;9.126;2024-02-26T04:53:26;2.60;;;2.40;;
665;SDS011;315;48.738;9.126;2024-02-26T04:55:52;2.10;;;2.00;;
665;SDS011;315;48.738;9.126;2024-02-26T04:58:17;2.90;;;2.70;;
665;SDS011;315;48.738;9.126;2024-02-26T05:00:43;2.67;;;2.47;;
665;SDS011;315;48.738;9.126;2024-02-26T05:03:09;3.03;;;2.83;;
665;SDS011;315;48.738;9.126;2024-02-26T05:05:38;3.00;;;2.67;;
665;SDS011;315;48.738;9.126;2024-02-26T05:08:04;2.97;;;2.77;;
665;SDS011;315;48.738;9.126;2024-02-26T05:10:30;3.00;;;2.80;;
665;SDS011;315;48.738;9.126;2024-02-26T05:12:55;3.27;;;3.00;;
665;SDS011;315;48.738;9.126;2024-02-26T05:15:21;4.67;;;3.47;;
665;SDS011;315;48.738;9.126;2024-02-26T05:17:46;3.40;;;2.87;;
665;SDS011;315;48.738;9.126;2024-02-26T05:20:12;3.10;;;2.90;;
665;SDS011;315;48.738;9.126;2024-02-26T05:22:38;3.60;;;3.20;;
665;SDS011;315;48.738;9.126;2024-02-26T05:25:03;7.27;;;3.50;;
665;SDS011;315;48.738;9.126;2024-02-26T05:27:29;2.60;;;2.40;;
665;SDS011;315;48.738;9.126;2024-02-26T05:29:55;3.27;;;2.73;;
665;SDS011;315;48.738;9.126;2024-02-26T05:32:20;2.90;;;2.70;;
665;SDS011;315;48.738;9.126;2024-02-26T05:34:46;2.63;;;2.43;;
665;SDS011;315;48.738;9.126;2024-02-26T05:37:11;2.80;;;2.60;;
665;SDS011;315;48.738;9.126;2024-02-26T05:39:37;4.47;;;3.23;;
665;SDS011;315;48.738;9.126;2024-02-26T05:42:02;2.93;;;2.63;;
665;SDS011;315;48.738;9.126;2024-02-26T05:44:28;3.13;;;2.93;;
665;SDS011;315;48.738;9.126;2024-02-26T05:46:54;3.93;;;3.40;;
665;SDS011;315;48.738;9.126;2024-02-26T05:49:19;3.77;;;3.37;;
665;SDS011;315;48.738;9.126;2024-02-26T05:51:46;2.40;;;2.20;;
665;SDS011;315;48.738;9.126;2024-02-26T05:54:12;3.20;;;2.87;;
665;SDS011;315;48.738;9.126;2024-02-26T05:56:37;2.83;;;2.63;;
665;SDS011;315;48.738;9.126;2024-02-26T05:59:03;3.37;;;3.07;;
665;SDS011;315;48.738;9.126;2024-02-26T06:01:29;3.30;;;2.90;;
665;SDS011;315;48.738;9.126;2024-02-26T06:03:55;4.30;;;3.40;;
665;SDS011;315;48.738;9.126;2024-02-26T06:06:21;3.27;;;2.97;;
665;SDS011;315;48.738;9.126;2024-02-26T06:08:48;4.10;;;3.17;;
665;SDS011;315;48.738;9.126;2024-02-26T06:11:14;2.50;;;2.30;;
665;SDS011;315;48.738;9.126;2024-02-26T06:13:39;2.90;;;2.67;;
665;SDS011;315;48.738;9.126;2024-02-26T06:16:05;2.97;;;2.77;;
665;SDS011;315;48.738;9.126;2024-02-26T06:18:31;3.40;;;3.10;;
665;SDS011;315;48.738;9.126;2024-02-26T06:20:56;3.20;;;3.00;;
665;SDS011;315;48.738;9.126;2024-02-26T06:23:22;3.70;;;3.40;;
665;SDS011;315;48.738;9.126;2024-02-26T06:25:48;3.73;;;3.43;;
665;SDS011;315;48.738;9.126;2024-02-26T06:28:13;4.00;;;3.60;;
665;SDS011;315;48.738;9.126;2024-02-26T06:30:39;3.83;;;3.43;;
665;SDS011;315;48.738;9.126;2024-02-26T06:33:04;3.93;;;3.53;;
665;SDS011;315;48.738;9.126;2024-02-26T06:35:30;3.00;;;2.80;;
665;SDS011;315;48.738;9.126;2024-02-26T06:37:55;3.57;;;3.27;;
665;SDS011;315;48.738;9.126;2024-02-26T06:40:21;5.97;;;5.37;;
665;SDS011;315;48.738;9.126;2024-02-26T06:42:46;4.50;;;3.90;;
665;SDS011;315;48.738;9.126;2024-02-26T06:45:12;3.17;;;2.87;;
665;SDS011;315;48.738;9.126;2024-02-26T06:47:38;4.23;;;3.43;;
665;SDS011;315;48.738;9.126;2024-02-26T06:50:03;3.40;;;2.70;;
665;SDS011;315;48.738;9.126;2024-02-26T06:52:29;2.70;;;2.57;;
665;SDS011;315;48.738;9.126;2024-02-26T06:54:54;10.17;;;8.80;;
665;SDS011;315;48.738;9.126;2024-02-26T06:57:20;8.90;;;8.10;;
665;SDS011;315;48.738;9.126;2024-02-26T06:59:46;6.57;;;5.97;;
665;SDS011;315;48.738;9.126;2024-02-26T07:02:15;6.30;;;5.27;;
665;SDS011;315;48.738;9.126;2024-02-26T07:04:41;5.43;;;4.93;;
665;SDS011;315;48.738;9.126;2024-02-26T07:07:07;5.03;;;3.57;;
665;SDS011;315;48.738;9.126;2024-02-26T07:09:33;3.10;;;2.80;;
665;SDS011;315;48.738;9.126;2024-02-26T07:11:58;6.50;;;5.77;;
665;SDS011;315;48.738;9.126;2024-02-26T07:14:24;4.13;;;2.87;;
665;SDS011;315;48.738;9.126;2024-02-26T07:16:50;3.60;;;3.30;;
665;SDS011;315;48.738;9.126;2024-02-26T07:19:15;5.90;;;3.63;;
665;SDS011;315;48.738;9.126;2024-02-26T07:21:41;4.30;;;3.93;;
665;SDS011;315;48.738;9.126;2024-02-26T07:24:06;3.53;;;3.23;;
665;SDS011;315;48.738;9.126;2024-02-26T07:26:32;3.50;;;3.07;;
665;SDS011;315;48.738;9.126;2024-02-26T07:28:57;4.50;;;4.20;;
665;SDS011;315;48.738;9.126;2024-02-26T07:31:23;3.17;;;2.90;;
665;SDS011;315;48.738;9.126;2024-02-26T07:33:49;3.73;;;3.20;;
665;SDS011;315;48.738;9.126;2024-02-26T07:36:14;4.20;;;3.90;;
665;SDS011;315;48.738;9.126;2024-02-26T07:38:40;3.50;;;3.20;;
665;SDS011;315;48.738;9.126;2024-02-26T07:41:05;5.50;;;3.20;;
665;SDS011;315;48.738;9.126;2024-02-26T07:43:31;3.33;;;2.90;;
665;SDS011;315;48.738;9.126;2024-02-26T07:45:57;3.10;;;2.80;;
665;SDS011;315;48.738;9.126;2024-02-26T07:48:22;2.70;;;2.50;;
665;SDS011;315;48.738;9.126;2024-02-26T07:50:48;3.03;;;2.70;;
665;SDS011;315;48.738;9.126;2024-02-26T07:53:13;3.13;;;2.67;;
665;SDS011;315;48.738;9.126;2024-02-26T07:55:39;4.30;;;3.77;;
665;SDS011;315;48.738;9.126;2024-02-26T07:58:04;4.87;;;3.67;;
665;SDS011;315;48.738;9.126;2024-02-26T08:00:30;5.97;;;3.60;;
665;SDS011;315;48.738;9.126;2024-02-26T08:02:55;2.83;;;2.60;;
665;SDS011;315;48.738;9.126;2024-02-26T08:05:21;2.30;;;2.10;;
665;SDS011;315;48.738;9.126;2024-02-26T08:07:46;2.80;;;2.47;;
665;SDS011;315;48.738;9.126;2024-02-26T08:10:12;2.37;;;2.10;;
665;SDS011;315;48.738;9.126;2024-02-26T08:12:38;3.60;;;3.10;;
665;SDS011;315;48.738;9.126;2024-02-26T08:15:03;4.93;;;3.30;;
665;SDS011;315;48.738;9.126;2024-02-26T08:17:29;3.60;;;3.30;;
665;SDS011;315;48.738;9.126;2024-02-26T08:19:55;2.60;;;2.40;;
665;SDS011;315;48.738;9.126;2024-02-26T08:22:22;3.07;;;2.30;;
665;SDS011;315;48.738;9.126;2024-02-26T08:24:47;5.97;;;2.77;;
665;SDS011;315;48.738;9.126;2024-02-26T08:27:13;2.90;;;2.60;;
665;SDS011;315;48.738;9.126;2024-02-26T08:29:38;3.50;;;2.53;;
665;SDS011;315;48.738;9.126;2024-02-26T08:32:04;3.53;;;3.00;;
665;SDS011;315;48.738;9.126;2024-02-26T08:34:30;3.30;;;3.00;;
665;SDS011;315;48.738;9.126;2024-02-26T08:36:56;2.97;;;2.67;;
665;SDS011;315;48.738;9.126;2024-02-26T08:39:21;3.67;;;3.27;;
665;SDS011;315;48.738;9.126;2024-02-26T08:41:47;3.80;;;3.50;;
665;SDS011;315;48.738;9.126;2024-02-26T08:44:12;3.70;;;3.40;;
665;SDS011;315;48.738;9.126;2024-02-26T08:46:38;3.93;;;3.17;;
665;SDS011;315;48.738;9.126;2024-02-26T08:49:03;6.80;;;3.27;;
665;SDS011;315;48.738;9.126;2024-02-26T08:51:29;6.30;;;3.70;;
665;SDS011;315;48.738;9.126;2024-02-26T08:53:54;4.57;;;3.07;;
665;SDS011;315;48.738;9.126;2024-02-26T08:56:20;2.70;;;2.50;;
665;SDS011;315;48.738;9.126;2024-02-26T08:58:46;4.80;;;3.33;;
665;SDS011;315;48.738;9.126;2024-02-26T09:01:14;4.00;;;2.60;;
665;SDS011;315;48.738;9.126;2024-02-26T09:03:40;2.90;;;2.70;;
665;SDS011;315;48.738;9.126;2024-02-26T09:06:05;3.50;;;2.93;;
665;SDS011;315;48.738;9.126;2024-02-26T09:08:34;4.27;;;3.00;;
665;SDS011;315;48.738;9.126;2024-02-26T09:11:01;3.70;;;3.40;;
665;SDS011;315;48.738;9.126;2024-02-26T09:13:26;4.87;;;3.07;;
665;SDS011;315;48.738;9.126;2024-02-26T09:15:52;5.70;;;3.23;;
665;SDS011;315;48.738;9.126;2024-02-26T09:18:17;4.83;;;2.90;;
665;SDS011;315;48.738;9.126;2024-02-26T09:20:43;3.73;;;3.07;;
665;SDS011;315;48.738;9.126;2024-02-26T09:23:09;4.27;;;3.53;;
665;SDS011;315;48.738;9.126;2024-02-26T09:25:34;4.20;;;3.40;;
665;SDS011;315;48.738;9.126;2024-02-26T09:28:00;4.70;;;3.23;;
665;SDS011;315;48.738;9.126;2024-02-26T09:30:26;5.77;;;2.87;;
665;SDS011;315;48.738;9.126;2024-02-26T09:32:52;5.83;;;3.33;;
665;SDS011;315;48.738;9.126;2024-02-26T09:35:17;3.63;;;3.30;;
665;SDS011;315;48.738;9.126;2024-02-26T09:37:43;4.90;;;2.83;;
665;SDS011;315;48.738;9.126;2024-02-26T09:40:09;3.33;;;3.10;;
665;SDS011;315;48.738;9.126;2024-02-26T09:42:36;3.00;;;2.80;;
665;SDS011;315;48.738;9.126;2024-02-26T09:45:07;4.03;;;3.40;;
665;SDS011;315;48.738;9.126;2024-02-26T09:47:37;3.70;;;3.30;;
665;SDS011;315;48.738;9.126;2024-02-26T09:50:04;2.63;;;2.43;;
665;SDS011;315;48.738;9.126;2024-02-26T09:52:32;4.63;;;3.03;;
665;SDS011;315;48.738;9.126;2024-02-26T09:54:59;3.70;;;3.40;;
665;SDS011;315;48.738;9.126;2024-02-26T09:57:25;3.63;;;3.27;;
665;SDS011;315;48.738;9.126;2024-02-26T09:59:51;4.30;;;2.50;;
665;SDS011;315;48.738;9.126;2024-02-26T10:02:19;4.90;;;2.60;;
665;SDS011;315;48.738;9.126;2024-02-26T10:04:46;8.27;;;4.77;;
665;SDS011;315;48.738;9.126;2024-02-26T10:07:12;4.47;;;3.10;;
665;SDS011;315;48.738;9.126;2024-02-26T10:09:38;3.80;;;3.07;;
665;SDS011;315;48.738;9.126;2024-02-26T10:12:04;3.13;;;2.93;;
665;SDS011;315;48.738;9.126;2024-02-26T10:14:32;6.07;;;3.00;;
665;SDS011;315;48.738;9.126;2024-02-26T10:16:58;3.20;;;2.90;;
665;SDS011;315;48.738;9.126;2024-02-26T10:19:26;4.50;;;4.10;;
665;SDS011;315;48.738;9.126;2024-02-26T10:22:00;5.40;;;3.50;;
665;SDS011;315;48.738;9.126;2024-02-26T10:24:26;3.30;;;3.10;;
665;SDS011;315;48.738;9.126;2024-02-26T10:26:55;3.50;;;3.27;;
665;SDS011;315;48.738;9.126;2024-02-26T10:29:22;3.60;;;3.30;;
665;SDS011;315;48.738;9.126;2024-02-26T10:31:50;6.77;;;3.03;;
665;SDS011;315;48.738;9.126;2024-02-26T10:34:16;3.00;;;2.80;;
665;SDS011;315;48.738;9.126;2024-02-26T10:36:42;2.33;;;2.13;;
665;SDS011;315;48.738;9.126;2024-02-26T10:39:11;3.03;;;2.83;;
665;SDS011;315;48.738;9.126;2024-02-26T10:41:41;4.50;;;2.70;;
665;SDS011;315;48.738;9.126;2024-02-26T10:44:09;2.77;;;2.57;;
665;SDS011;315;48.738;9.126;2024-02-26T10:46:40;4.07;;;3.40;;
665;SDS011;315;48.738;9.126;2024-02-26T10:49:07;3.83;;;3.50;;
665;SDS011;315;48.738;9.126;2024-02-26T10:51:45;3.57;;;3.37;;
665;SDS011;315;48.738;9.126;2024-02-26T10:54:16;4.87;;;4.00;;
665;SDS011;315;48.738;9.126;2024-02-26T10:56:42;4.33;;;3.93;;
665;SDS011;315;48.738;9.126;2024-02-26T10:59:09;5.30;;;4.10;;
665;SDS011;315;48.738;9.126;2024-02-26T11:01:35;4.00;;;3.70;;
665;SDS011;315;48.738;9.126;2024-02-26T11:04:03;6.10;;;3.37;;
665;SDS011;315;48.738;9.126;2024-02-26T11:06:29;4.57;;;4.27;;
665;SDS011;315;48.738;9.126;2024-02-26T11:08:55;3.70;;;3.40;;
665;SDS011;315;48.738;9.126;2024-02-26T11:11:23;3.53;;;3.23;;
665;SDS011;315;48.738;9.126;2024-02-26T11:13:50;4.77;;;3.07;;
665;SDS011;315;48.738;9.126;2024-02-26T11:16:17;2.90;;;2.70;;
665;SDS011;315;48.738;9.126;2024-02-26T11:18:44;3.00;;;2.70;;
665;SDS011;315;48.738;9.126;2024-02-26T11:21:13;3.40;;;3.20;;
665;SDS011;315;48.738;9.126;2024-02-26T11:23:40;3.70;;;3.40;;
665;SDS011;315;48.738;9.126;2024-02-26T11:26:06;7.10;;;3.40;;
665;SDS011;315;48.738;9.126;2024-02-26T11:28:34;12.50;;;3.93;;
665;SDS011;315;48.738;9.126;2024-02-26T11:31:00;2.80;;;2.60;;
665;SDS011;315;48.738;9.126;2024-02-26T11:33:26;2.70;;;2.50;;
665;SDS011;315;48.738;9.126;2024-02-26T11:35:53;3.60;;;3.30;;
665;SDS011;315;48.738;9.126;2024-02-26T11:38:20;3.03;;;2.43;;
665;SDS011;315;48.738;9.126;2024-02-26T11:40:49;3.23;;;2.70;;
665;SDS011;315;48.738;9.126;2024-02-26T11:43:15;2.60;;;2.40;;
665;SDS011;315;48.738;9.126;2024-02-26T11:48:14;2.60;;;2.40;;
665;SDS011;315;48.738;9.126;2024-02-26T11:50:45;3.60;;;2.53;;
665;SDS011;315;48.738;9.126;2024-02-26T11:53:23;3.40;;;2.67;;
665;SDS011;315;48.738;9.126;2024-02-26T11:58:57;1.97;;;1.87;;
665;SDS011;315;48.738;9.126;2024-02-26T12:01:40;2.33;;;1.93;;
665;SDS011;315;48.738;9.126;2024-02-26T12:04:25;1.90;;;1.80;;
665;SDS011;315;48.738;9.126;2024-02-26T12:06:57;2.00;;;1.90;;
665;SDS011;315;48.738;9.126;2024-02-26T12:09:38;2.13;;;1.87;;
665;SDS011;315;48.738;9.126;2024-02-26T12:12:09;2.00;;;1.90;;
665;SDS011;315;48.738;9.126;2024-02-26T12:14:50;2.40;;;2.20;;
665;SDS011;315;48.738;9.126;2024-02-26T12:17:21;3.17;;;2.37;;
665;SDS011;315;48.738;9.126;2024-02-26T12:19:48;2.40;;;2.27;;
665;SDS011;315;48.738;9.126;2024-02-26T12:22:15;2.43;;;2.30;;
665;SDS011;315;48.738;9.126;2024-02-26T12:24:41;2.17;;;1.90;;
665;SDS011;315;48.738;9.126;2024-02-26T12:27:07;2.20;;;1.90;;
665;SDS011;315;48.738;9.126;2024-02-26T12:29:33;2.07;;;1.93;;
665;SDS011;315;48.738;9.126;2024-02-26T12:31:59;2.47;;;2.03;;
665;SDS011;315;48.738;9.126;2024-02-26T12:34:24;3.30;;;2.53;;
665;SDS011;315;48.738;9.126;2024-02-26T12:36:51;3.67;;;1.97;;
665;SDS011;315;48.738;9.126;2024-02-26T12:39:18;3.97;;;3.10;;
665;SDS011;315;48.738;9.126;2024-02-26T12:41:45;3.00;;;2.63;;
665;SDS011;315;48.738;9.126;2024-02-26T12:44:14;2.53;;;2.33;;
665;SDS011;315;48.738;9.126;2024-02-26T12:46:49;2.30;;;2.10;;
665;SDS011;315;48.738;9.126;2024-02-26T12:49:15;2.00;;;1.80;;
665;SDS011;315;48.738;9.126;2024-02-26T12:51:44;2.30;;;2.10;;
665;SDS011;315;48.738;9.126;2024-02-26T12:54:10;2.27;;;1.73;;
665;SDS011;315;48.738;9.126;2024-02-26T12:56:37;2.23;;;1.60;;
665;SDS011;315;48.738;9.126;2024-02-26T12:59:03;2.30;;;2.10;;
665;SDS011;315;48.738;9.126;2024-02-26T13:01:29;2.20;;;2.10;;
665;SDS011;315;48.738;9.126;2024-02-26T13:03:55;3.00;;;1.80;;
665;SDS011;315;48.738;9.126;2024-02-26T13:06:21;1.77;;;1.60;;
665;SDS011;315;48.738;9.126;2024-02-26T13:08:47;1.63;;;1.53;;
665;SDS011;315;48.738;9.126;2024-02-26T13:11:13;2.13;;;2.03;;
665;SDS011;315;48.738;9.126;2024-02-26T13:13:39;1.70;;;1.60;;
665;SDS011;315;48.738;9.126;2024-02-26T13:16:05;2.00;;;1.90;;
665;SDS011;315;48.738;9.126;2024-02-26T13:18:33;2.17;;;1.97;;
665;SDS011;315;48.738;9.126;2024-02-26T13:23:34;3.17;;;2.87;;
665;SDS011;315;48.738;9.126;2024-02-26T13:26:00;3.67;;;3.00;;
665;SDS011;315;48.738;9.126;2024-02-26T13:28:25;4.40;;;2.93;;
665;SDS011;315;48.738;9.126;2024-02-26T13:30:53;4.90;;;3.20;;
665;SDS011;315;48.738;9.126;2024-02-26T13:33:24;3.90;;;3.37;;
665;SDS011;315;48.738;9.126;2024-02-26T13:35:51;7.50;;;5.60;;
665;SDS011;315;48.738;9.126;2024-02-26T13:38:17;6.60;;;5.93;;
665;SDS011;315;48.738;9.126;2024-02-26T13:40:43;6.07;;;4.43;;
665;SDS011;315;48.738;9.126;2024-02-26T13:43:09;5.87;;;3.87;;
665;SDS011;315;48.738;9.126;2024-02-26T13:45:35;8.20;;;3.43;;
665;SDS011;315;48.738;9.126;2024-02-26T13:48:02;3.63;;;3.33;;
665;SDS011;315;48.738;9.126;2024-02-26T13:50:28;8.27;;;3.27;;
665;SDS011;315;48.738;9.126;2024-02-26T13:52:54;4.30;;;3.63;;
665;SDS011;315;48.738;9.126;2024-02-26T13:55:21;6.73;;;4.40;;
665;SDS011;315;48.738;9.126;2024-02-26T13:57:49;2.70;;;2.50;;
665;SDS011;315;48.738;9.126;2024-02-26T14:00:16;3.53;;;3.23;;
665;SDS011;315;48.738;9.126;2024-02-26T14:02:42;5.57;;;3.00;;
665;SDS011;315;48.738;9.126;2024-02-26T14:05:08;3.73;;;2.60;;
665;SDS011;315;48.738;9.126;2024-02-26T14:07:34;2.90;;;2.70;;
665;SDS011;315;48.738;9.126;2024-02-26T14:09:59;2.53;;;2.33;;
665;SDS011;315;48.738;9.126;2024-02-26T14:12:25;2.40;;;2.20;;
665;SDS011;315;48.738;9.126;2024-02-26T14:14:50;4.70;;;2.57;;
665;SDS011;315;48.738;9.126;2024-02-26T14:17:18;2.43;;;2.00;;
665;SDS011;315;48.738;9.126;2024-02-26T14:19:43;2.33;;;2.13;;
665;SDS011;315;48.738;9.126;2024-02-26T14:22:12;2.20;;;2.00;;
665;SDS011;315;48.738;9.126;2024-02-26T14:24:39;1.90;;;1.80;;
665;SDS011;315;48.738;9.126;2024-02-26T14:27:11;3.70;;;1.90;;
665;SDS011;315;48.738;9.126;2024-02-26T14:29:41;1.83;;;1.70;;
665;SDS011;315;48.738;9.126;2024-02-26T14:32:08;2.03;;;1.70;;
665;SDS011;315;48.738;9.126;2024-02-26T14:34:34;1.30;;;1.20;;
665;SDS011;315;48.738;9.126;2024-02-26T14:36:59;2.03;;;1.93;;
665;SDS011;315;48.738;9.126;2024-02-26T14:39:25;3.17;;;2.10;;
665;SDS011;315;48.738;9.126;2024-02-26T14:41:50;4.20;;;2.60;;
665;SDS011;315;48.738;9.126;2024-02-26T14:44:16;2.63;;;2.40;;
665;SDS011;315;48.738;9.126;2024-02-26T14:46:42;2.23;;;2.03;;
665;SDS011;315;48.738;9.126;2024-02-26T14:49:08;2.00;;;1.90;;
665;SDS011;315;48.738;9.126;2024-02-26T14:51:33;1.90;;;1.80;;
665;SDS011;315;48.738;9.126;2024-02-26T14:53:59;2.70;;;1.30;;
665;SDS011;315;48.738;9.126;2024-02-26T14:56:26;2.50;;;1.10;;
665;SDS011;315;48.738;9.126;2024-02-26T14:58:52;1.60;;;1.50;;
665;SDS011;315;48.738;9.126;2024-02-26T15:01:18;1.60;;;1.50;;
665;SDS011;315;48.738;9.126;2024-02-26T15:03:43;1.47;;;1.37;;
665;SDS011;315;48.738;9.126;2024-02-26T15:06:08;4.53;;;1.43;;
665;SDS011;315;48.738;9.126;2024-02-26T15:08:34;2.30;;;1.37;;
665;SDS011;315;48.738;9.126;2024-02-26T15:11:03;1.60;;;1.50;;
665;SDS011;315;48.738;9.126;2024-02-26T15:13:28;1.50;;;1.40;;
665;SDS011;315;48.738;9.126;2024-02-26T15:15:54;2.30;;;1.40;;
665;SDS011;315;48.738;9.126;2024-02-26T15:18:19;1.70;;;1.60;;
665;SDS011;315;48.738;9.126;2024-02-26T15:20:45;1.73;;;1.57;;
665;SDS011;315;48.738;9.126;2024-02-26T15:23:11;1.50;;;1.40;;
665;SDS011;315;48.738;9.126;2024-02-26T15:25:37;1.80;;;1.50;;
665;SDS011;315;48.738;9.126;2024-02-26T15:28:03;1.50;;;1.40;;
665;SDS011;315;48.738;9.126;2024-02-26T15:30:29;2.07;;;1.70;;
665;SDS011;315;48.738;9.126;2024-02-26T15:32:58;7.53;;;1.70;;
665;SDS011;315;48.738;9.126;2024-02-26T15:35:24;1.80;;;1.70;;
665;SDS011;315;48.738;9.126;2024-02-26T15:37:50;2.30;;;2.20;;
665;SDS011;315;48.738;9.126;2024-02-26T15:40:16;2.23;;;2.10;;
665;SDS011;315;48.738;9.126;2024-02-26T15:42:42;2.20;;;2.00;;
665;SDS011;315;48.738;9.126;2024-02-26T15:45:07;3.40;;;2.90;;
665;SDS011;315;48.738;9.126;2024-02-26T15:47:33;2.30;;;2.10;;